Time;durP1;ratioP1;P1;durP2;ratioP2;P2;SDS_P1;SDS_P2;PMS_P1;PMS_P2;Temp;Humidity;BMP_temperature;BMP_pressure;BME280_temperature;BME280_humidity;BME280_pressure;Samples;Min_cycle;Max_cycle;Signal;HPM_P1;HPM_P2
2023/11/15 00:00:33;;;;;;;18.52;4.65;;;11.00;99.90;;;;;;5027252;28;20083;-74
2023/11/15 00:02:58;;;;;;;20.98;4.93;;;11.00;99.90;;;;;;5009949;28;20025;-75
2023/11/15 00:05:24;;;;;;;20.50;3.97;;;11.00;99.90;;;;;;5027179;28;20044;-74
2023/11/15 00:07:50;;;;;;;21.92;4.25;;;11.00;99.90;;;;;;5027563;28;20028;-74
2023/11/15 00:10:15;;;;;;;17.70;3.88;;;11.00;99.90;;;;;;5027320;28;20104;-74
2023/11/15 00:12:42;;;;;;;19.80;3.60;;;11.00;99.90;;;;;;5027479;28;20022;-74
2023/11/15 00:15:08;;;;;;;16.30;3.30;;;11.00;99.90;;;;;;5027314;28;20025;-74
2023/11/15 00:17:36;;;;;;;16.25;3.75;;;11.00;99.90;;;;;;5027334;28;20475;-74
2023/11/15 00:20:03;;;;;;;13.70;3.33;;;11.00;99.90;;;;;;5027329;28;20080;-74
2023/11/15 00:22:30;;;;;;;17.38;3.97;;;11.00;99.90;;;;;;5020428;28;20022;-74
2023/11/15 00:24:56;;;;;;;10.35;2.70;;;11.00;99.90;;;;;;5004079;28;20244;-75
2023/11/15 00:27:21;;;;;;;14.18;3.30;;;11.00;99.90;;;;;;5026919;28;20041;-74
2023/11/15 00:29:49;;;;;;;14.35;3.40;;;11.00;99.90;;;;;;5027318;28;20071;-74
2023/11/15 00:32:14;;;;;;;11.60;2.75;;;11.00;99.90;;;;;;5027289;28;20021;-74
2023/11/15 00:34:40;;;;;;;11.52;3.15;;;11.00;99.90;;;;;;5027095;28;20426;-74
2023/11/15 00:37:06;;;;;;;12.65;3.00;;;11.10;99.90;;;;;;5026580;28;20028;-74
2023/11/15 00:39:32;;;;;;;17.73;3.28;;;11.00;99.90;;;;;;5027022;28;20032;-73
2023/11/15 00:41:58;;;;;;;13.82;3.10;;;11.10;99.90;;;;;;5026684;28;20480;-73
2023/11/15 00:44:24;;;;;;;17.00;3.50;;;11.10;99.90;;;;;;4995059;28;20073;-73
2023/11/15 00:46:49;;;;;;;15.20;3.58;;;11.10;99.90;;;;;;5015713;28;20472;-73
2023/11/15 00:49:15;;;;;;;18.63;4.40;;;11.10;99.90;;;;;;4993519;28;20034;-73
2023/11/15 00:51:41;;;;;;;19.25;3.95;;;11.10;99.90;;;;;;4997943;28;20206;-73
2023/11/15 00:54:06;;;;;;;21.95;3.78;;;11.10;99.90;;;;;;5017166;28;20057;-73
2023/11/15 00:56:32;;;;;;;27.38;4.97;;;11.10;99.90;;;;;;5001454;28;20033;-73
2023/11/15 00:58:58;;;;;;;28.77;5.30;;;11.10;99.90;;;;;;5013564;28;20021;-73
2023/11/15 01:01:27;;;;;;;24.30;5.57;;;11.10;99.90;;;;;;5026160;28;20029;-73
2023/11/15 01:03:55;;;;;;;26.42;6.55;;;11.10;99.90;;;;;;5026966;28;20017;-74
2023/11/15 01:06:25;;;;;;;34.75;6.90;;;11.10;99.90;;;;;;5012245;28;20078;-73
2023/11/15 01:08:51;;;;;;;33.72;7.18;;;11.20;99.90;;;;;;5026622;28;20470;-73
2023/11/15 01:11:17;;;;;;;28.85;7.05;;;11.20;99.90;;;;;;5026431;28;20021;-73
2023/11/15 01:13:44;;;;;;;41.40;7.57;;;11.20;99.90;;;;;;5026386;28;20022;-73
2023/11/15 01:16:10;;;;;;;28.42;6.70;;;11.20;99.90;;;;;;4997682;28;20029;-73
2023/11/15 01:18:36;;;;;;;28.98;6.85;;;11.20;99.90;;;;;;5023325;28;20022;-73
2023/11/15 01:21:02;;;;;;;30.75;6.60;;;11.30;99.90;;;;;;5008381;28;20450;-72
2023/11/15 01:23:29;;;;;;;19.15;4.57;;;11.30;99.90;;;;;;5026236;28;20501;-72
2023/11/15 01:25:55;;;;;;;21.08;5.57;;;11.30;99.90;;;;;;5026097;28;20069;-73
2023/11/15 01:28:21;;;;;;;27.67;6.03;;;11.30;99.90;;;;;;5026136;28;20021;-73
2023/11/15 01:30:46;;;;;;;27.90;5.35;;;11.30;99.90;;;;;;5026003;28;20029;-72
2023/11/15 01:33:12;;;;;;;17.13;3.47;;;11.30;99.90;;;;;;5026536;28;20057;-73
2023/11/15 01:35:37;;;;;;;15.38;3.15;;;11.30;99.90;;;;;;5026148;28;20105;-72
2023/11/15 01:38:03;;;;;;;14.75;2.42;;;11.30;99.90;;;;;;5008555;28;20503;-73
2023/11/15 01:40:33;;;;;;;13.10;2.67;;;11.30;99.90;;;;;;5025938;28;20030;-73
2023/11/15 01:43:00;;;;;;;15.70;2.67;;;11.30;99.90;;;;;;5005127;28;20045;-73
2023/11/15 01:45:27;;;;;;;12.57;2.55;;;11.20;99.90;;;;;;5006607;28;20026;-72
2023/11/15 01:47:53;;;;;;;6.38;1.90;;;11.20;99.90;;;;;;5020305;28;20364;-72
2023/11/15 01:50:19;;;;;;;8.95;1.65;;;11.20;99.90;;;;;;5018372;28;20021;-72
2023/11/15 01:52:47;;;;;;;13.98;2.60;;;11.20;99.90;;;;;;5008140;28;20558;-72
2023/11/15 01:55:19;;;;;;;11.82;2.08;;;11.10;99.90;;;;;;4998786;28;20022;-73
2023/11/15 01:57:46;;;;;;;11.88;2.40;;;11.10;99.90;;;;;;5010188;28;20036;-72
2023/11/15 02:00:14;;;;;;;7.93;1.65;;;11.00;99.90;;;;;;5019288;28;20550;-73
2023/11/15 02:02:41;;;;;;;10.93;1.50;;;11.00;99.90;;;;;;5012464;28;20040;-72
2023/11/15 02:05:09;;;;;;;5.05;1.60;;;11.00;99.90;;;;;;5005113;28;20453;-72
2023/11/15 02:07:37;;;;;;;6.72;1.30;;;10.90;99.90;;;;;;5009766;28;20026;-72
2023/11/15 02:10:04;;;;;;;2.58;1.17;;;10.90;99.90;;;;;;5024087;28;20037;-72
2023/11/15 02:12:30;;;;;;;7.43;1.15;;;10.80;99.90;;;;;;5018293;28;20084;-72
2023/11/15 02:14:56;;;;;;;3.30;1.17;;;10.80;99.90;;;;;;5015614;28;20491;-72
2023/11/15 02:17:22;;;;;;;5.38;1.25;;;10.80;99.90;;;;;;5001629;28;20034;-73
2023/11/15 02:19:49;;;;;;;3.92;1.30;;;10.80;99.90;;;;;;5015524;28;20472;-72
2023/11/15 02:22:15;;;;;;;4.22;1.50;;;10.80;99.90;;;;;;4994150;28;20476;-73
2023/11/15 02:24:41;;;;;;;6.15;1.40;;;10.80;99.90;;;;;;5001083;28;20064;-73
2023/11/15 02:27:07;;;;;;;11.85;1.55;;;10.70;99.90;;;;;;5023451;28;20030;-73
2023/11/15 02:29:33;;;;;;;4.43;1.42;;;10.80;99.90;;;;;;5010000;28;20066;-73
2023/11/15 02:31:59;;;;;;;7.15;1.70;;;10.80;99.90;;;;;;4992596;28;20081;-73
2023/11/15 02:34:24;;;;;;;11.38;1.73;;;10.80;99.90;;;;;;5022302;28;20632;-73
2023/11/15 02:36:50;;;;;;;5.82;1.50;;;10.70;99.90;;;;;;5009397;28;20034;-74
2023/11/15 02:39:15;;;;;;;4.78;1.60;;;10.70;99.90;;;;;;5023450;28;20026;-73
2023/11/15 02:41:41;;;;;;;10.23;2.10;;;10.70;99.90;;;;;;5009245;28;20065;-73
2023/11/15 02:44:10;;;;;;;10.25;2.22;;;10.70;99.90;;;;;;5026069;28;20037;-73
2023/11/15 02:46:36;;;;;;;17.52;3.20;;;10.70;99.90;;;;;;5028620;28;20028;-73
2023/11/15 02:49:01;;;;;;;14.57;2.60;;;10.70;99.90;;;;;;5029249;28;20368;-73
2023/11/15 02:51:28;;;;;;;12.73;2.97;;;10.80;99.90;;;;;;5028752;28;20061;-74
2023/11/15 02:53:54;;;;;;;16.67;3.40;;;10.80;99.90;;;;;;5011216;28;20034;-73
2023/11/15 02:56:21;;;;;;;21.92;3.70;;;10.80;99.90;;;;;;5014460;28;20030;-74
2023/11/15 02:58:46;;;;;;;15.52;4.35;;;10.80;99.90;;;;;;5028846;28;20071;-73
2023/11/15 03:01:12;;;;;;;16.98;4.63;;;10.80;99.90;;;;;;5028472;28;20471;-74
2023/11/15 03:03:41;;;;;;;20.75;5.05;;;10.80;99.90;;;;;;5028951;28;20025;-74
2023/11/15 03:06:07;;;;;;;25.00;4.47;;;10.80;99.90;;;;;;5020988;28;20017;-74
2023/11/15 03:08:33;;;;;;;42.05;5.40;;;10.80;99.90;;;;;;5027971;28;20028;-74
2023/11/15 03:10:59;;;;;;;28.48;4.90;;;10.90;99.90;;;;;;5027936;28;20109;-74
2023/11/15 03:13:25;;;;;;;29.33;6.50;;;10.90;99.90;;;;;;5010817;28;20033;-74
2023/11/15 03:15:52;;;;;;;33.78;4.85;;;10.90;99.90;;;;;;5028652;28;20040;-74
2023/11/15 03:18:17;;;;;;;23.38;4.15;;;10.90;99.90;;;;;;5028412;28;20049;-74
2023/11/15 03:20:43;;;;;;;32.50;5.35;;;11.00;99.90;;;;;;5028376;28;20108;-74
2023/11/15 03:23:09;;;;;;;34.40;4.57;;;10.90;99.90;;;;;;5028509;28;20029;-74
2023/11/15 03:25:36;;;;;;;27.88;4.22;;;11.00;99.90;;;;;;5028319;28;20017;-74
2023/11/15 03:28:01;;;;;;;26.05;4.90;;;11.00;99.90;;;;;;5028303;28;20021;-74
2023/11/15 03:30:27;;;;;;;27.40;4.78;;;11.00;99.90;;;;;;5028121;28;20025;-74
2023/11/15 03:32:53;;;;;;;23.13;4.13;;;11.00;99.90;;;;;;5028408;28;20022;-74
2023/11/15 03:35:20;;;;;;;25.42;4.45;;;11.00;99.90;;;;;;5028313;28;20525;-74
2023/11/15 03:37:46;;;;;;;27.17;4.93;;;11.00;99.90;;;;;;5028031;28;20447;-74
2023/11/15 03:40:11;;;;;;;26.95;4.70;;;11.00;99.90;;;;;;5028318;28;20124;-74
2023/11/15 03:42:38;;;;;;;24.33;4.05;;;11.00;99.90;;;;;;5027838;28;20079;-73
2023/11/15 03:45:05;;;;;;;27.10;4.25;;;11.00;99.90;;;;;;5038706;28;20056;-75
2023/11/15 03:47:31;;;;;;;20.02;3.80;;;11.10;99.90;;;;;;5012972;28;20030;-74
2023/11/15 03:49:59;;;;;;;28.52;4.20;;;11.10;99.90;;;;;;5028306;28;20025;-74
2023/11/15 03:52:24;;;;;;;22.17;4.05;;;11.00;99.90;;;;;;5010406;28;20037;-74
2023/11/15 03:54:50;;;;;;;22.85;3.85;;;11.00;99.90;;;;;;5034300;28;20053;-74
2023/11/15 03:57:15;;;;;;;32.80;4.47;;;11.00;99.90;;;;;;5023190;28;20515;-73
2023/11/15 03:59:41;;;;;;;26.90;4.00;;;11.10;99.90;;;;;;5008948;28;20018;-74
2023/11/15 04:02:07;;;;;;;26.50;4.80;;;11.00;99.90;;;;;;5038669;28;20049;-74
2023/11/15 04:04:33;;;;;;;19.58;4.30;;;11.00;99.90;;;;;;5019636;28;20025;-74
2023/11/15 04:06:59;;;;;;;23.10;4.47;;;11.00;99.90;;;;;;5019469;28;20028;-74
2023/11/15 04:09:25;;;;;;;20.58;3.97;;;11.00;99.90;;;;;;5025017;28;20120;-74
2023/11/15 04:11:51;;;;;;;22.02;3.97;;;11.00;99.90;;;;;;5035656;28;20125;-74
2023/11/15 04:14:17;;;;;;;20.65;4.00;;;11.00;99.90;;;;;;5026369;28;20111;-74
2023/11/15 04:16:44;;;;;;;26.52;4.43;;;11.00;99.90;;;;;;5019150;28;20018;-74
2023/11/15 04:19:10;;;;;;;28.38;4.20;;;11.00;99.90;;;;;;5032690;28;20504;-74
2023/11/15 04:21:36;;;;;;;14.10;2.80;;;11.10;99.90;;;;;;5033715;28;20029;-74
2023/11/15 04:24:02;;;;;;;25.40;3.42;;;11.00;99.90;;;;;;5019449;28;20017;-73
2023/11/15 04:26:28;;;;;;;19.40;3.22;;;11.00;99.90;;;;;;5024060;28;20060;-74
2023/11/15 04:28:54;;;;;;;23.35;3.95;;;11.00;99.90;;;;;;5035564;28;20616;-74
2023/11/15 04:31:20;;;;;;;19.17;3.05;;;11.00;99.90;;;;;;5026644;28;20029;-74
2023/11/15 04:33:46;;;;;;;24.52;4.03;;;11.00;99.90;;;;;;5019473;28;20018;-73
2023/11/15 04:36:14;;;;;;;25.35;3.10;;;11.00;99.90;;;;;;5031627;28;20076;-74
2023/11/15 04:38:40;;;;;;;31.15;3.92;;;11.00;99.90;;;;;;5034799;28;20398;-74
2023/11/15 04:41:06;;;;;;;29.05;4.38;;;11.00;99.90;;;;;;5032774;28;20018;-74
2023/11/15 04:43:33;;;;;;;25.40;3.47;;;11.00;99.90;;;;;;5034941;28;20596;-73
2023/11/15 04:45:58;;;;;;;29.50;3.38;;;11.00;99.90;;;;;;5009041;28;20076;-74
2023/11/15 04:48:25;;;;;;;28.25;4.30;;;11.00;99.90;;;;;;5037078;28;20064;-74
2023/11/15 04:50:51;;;;;;;21.67;3.35;;;11.00;99.90;;;;;;5032998;28;20026;-73
2023/11/15 04:53:16;;;;;;;27.83;4.95;;;11.00;99.90;;;;;;5038741;28;20032;-74
2023/11/15 04:55:42;;;;;;;25.45;3.03;;;11.00;99.90;;;;;;5032882;28;20047;-74
2023/11/15 04:58:07;;;;;;;25.45;4.43;;;11.00;99.90;;;;;;5033729;28;20056;-73
2023/11/15 05:00:33;;;;;;;24.55;3.20;;;11.00;99.90;;;;;;5016803;28;20029;-74
2023/11/15 05:02:59;;;;;;;32.65;4.07;;;11.00;99.90;;;;;;5040574;28;20045;-74
2023/11/15 05:05:24;;;;;;;24.58;3.63;;;11.00;99.90;;;;;;5020844;28;20570;-74
2023/11/15 05:07:50;;;;;;;28.23;3.75;;;11.00;99.90;;;;;;5021197;28;20032;-74
2023/11/15 05:10:16;;;;;;;24.60;3.72;;;11.00;99.90;;;;;;5032734;28;20505;-73
2023/11/15 05:12:41;;;;;;;27.70;3.72;;;11.10;99.90;;;;;;5036317;28;20056;-73
2023/11/15 05:15:07;;;;;;;27.83;4.43;;;11.10;99.90;;;;;;5010928;28;20032;-73
2023/11/15 05:17:33;;;;;;;28.92;4.68;;;11.10;99.90;;;;;;5038045;28;20033;-74
2023/11/15 05:19:59;;;;;;;35.15;4.95;;;11.10;99.90;;;;;;5009244;28;20014;-74
2023/11/15 05:22:24;;;;;;;27.60;3.83;;;11.10;99.90;;;;;;5039882;28;20490;-73
2023/11/15 05:24:50;;;;;;;20.77;3.30;;;11.10;99.90;;;;;;5038688;28;20829;-74
2023/11/15 05:27:17;;;;;;;22.95;3.58;;;11.10;99.90;;;;;;5032130;28;20069;-74
2023/11/15 05:29:43;;;;;;;34.88;3.83;;;11.10;99.90;;;;;;5018433;28;20527;-74
2023/11/15 05:32:08;;;;;;;37.42;4.65;;;11.10;99.90;;;;;;5007714;28;20033;-74
2023/11/15 05:34:35;;;;;;;21.42;3.90;;;11.10;99.90;;;;;;5030613;28;20102;-74
2023/11/15 05:37:00;;;;;;;33.38;3.95;;;11.10;99.90;;;;;;5044316;28;20028;-73
2023/11/15 05:39:26;;;;;;;21.30;3.78;;;11.10;99.90;;;;;;5036865;28;20022;-74
2023/11/15 05:41:52;;;;;;;20.75;4.28;;;11.10;99.90;;;;;;5038090;28;20022;-74
2023/11/15 05:44:17;;;;;;;27.85;4.13;;;11.10;99.90;;;;;;5040229;28;20062;-74
2023/11/15 05:46:43;;;;;;;29.60;4.82;;;11.10;99.90;;;;;;5030788;28;20549;-74
2023/11/15 05:49:09;;;;;;;20.02;4.45;;;11.10;99.90;;;;;;5034187;28;20523;-74
2023/11/15 05:51:36;;;;;;;27.98;4.50;;;11.10;99.90;;;;;;5038201;28;20025;-74
2023/11/15 05:54:05;;;;;;;31.17;4.70;;;11.20;99.90;;;;;;5017322;28;20025;-74
2023/11/15 05:56:34;;;;;;;27.73;3.83;;;11.10;99.90;;;;;;5036697;28;20599;-74
2023/11/15 05:58:59;;;;;;;28.52;3.60;;;11.10;99.90;;;;;;5024287;28;20029;-73
2023/11/15 06:01:26;;;;;;;28.05;4.38;;;11.10;99.90;;;;;;5035017;28;20013;-73
2023/11/15 06:03:52;;;;;;;24.25;4.03;;;11.20;99.90;;;;;;5027350;28;20464;-74
2023/11/15 06:06:17;;;;;;;27.55;3.95;;;11.10;99.90;;;;;;5031268;28;20096;-73
2023/11/15 06:08:44;;;;;;;30.00;6.05;;;11.10;99.90;;;;;;5011833;28;20438;-74
2023/11/15 06:11:10;;;;;;;26.73;4.45;;;11.10;99.90;;;;;;5029226;28;20056;-74
2023/11/15 06:13:39;;;;;;;29.05;4.80;;;11.10;99.90;;;;;;5039792;28;20037;-74
2023/11/15 06:16:08;;;;;;;31.60;4.57;;;11.10;99.90;;;;;;5012130;28;20064;-75
2023/11/15 06:18:35;;;;;;;25.67;4.22;;;11.10;99.90;;;;;;5017477;28;20398;-74
2023/11/15 06:21:00;;;;;;;19.10;4.55;;;11.10;99.90;;;;;;5032327;28;20022;-74
2023/11/15 06:23:26;;;;;;;29.08;4.25;;;11.10;99.90;;;;;;5037592;28;20021;-74
2023/11/15 06:25:52;;;;;;;27.08;4.35;;;11.10;99.90;;;;;;5023114;28;20052;-74
2023/11/15 06:28:18;;;;;;;25.15;4.13;;;11.10;99.90;;;;;;5024752;28;20036;-73
2023/11/15 06:30:48;;;;;;;28.90;4.35;;;11.10;99.90;;;;;;5007488;28;20022;-74
2023/11/15 06:33:14;;;;;;;24.83;4.10;;;11.10;99.90;;;;;;5020608;28;20414;-73
2023/11/15 06:35:39;;;;;;;25.00;4.15;;;11.10;99.90;;;;;;5029686;28;20033;-75
2023/11/15 06:38:05;;;;;;;27.17;4.95;;;11.10;99.90;;;;;;5038274;28;20052;-74
2023/11/15 06:40:31;;;;;;;21.67;4.20;;;11.10;99.90;;;;;;5021664;28;20026;-74
2023/11/15 06:42:57;;;;;;;29.45;4.78;;;11.10;99.90;;;;;;5023574;28;20084;-74
2023/11/15 06:45:23;;;;;;;25.85;4.50;;;11.10;99.90;;;;;;5027026;28;20029;-74
2023/11/15 06:47:53;;;;;;;25.00;4.35;;;11.10;99.90;;;;;;5027881;28;20049;-74
2023/11/15 06:50:19;;;;;;;28.83;4.35;;;11.10;99.90;;;;;;5019473;28;20104;-74
2023/11/15 06:52:45;;;;;;;28.05;4.20;;;11.00;99.90;;;;;;5026736;28;20030;-73
2023/11/15 06:55:11;;;;;;;23.05;4.43;;;11.00;99.90;;;;;;5029229;28;20509;-74
2023/11/15 06:57:38;;;;;;;27.75;4.57;;;11.00;99.90;;;;;;5028952;28;20041;-74
2023/11/15 07:00:08;;;;;;;25.75;4.28;;;11.00;99.90;;;;;;5028834;28;20490;-74
2023/11/15 07:02:35;;;;;;;28.95;4.65;;;11.00;99.90;;;;;;5023240;28;20022;-74
2023/11/15 07:05:03;;;;;;;27.30;4.20;;;11.00;99.90;;;;;;5027443;28;20064;-74
2023/11/15 07:07:30;;;;;;;23.20;4.72;;;11.00;99.90;;;;;;4991638;28;20033;-74
2023/11/15 07:09:55;;;;;;;26.95;5.07;;;11.00;99.90;;;;;;5009141;28;20030;-74
2023/11/15 07:12:23;;;;;;;30.95;5.22;;;11.00;99.90;;;;;;5025397;28;20838;-74
2023/11/15 07:14:51;;;;;;;29.67;5.00;;;11.00;99.90;;;;;;5028968;28;20029;-74
2023/11/15 07:17:19;;;;;;;24.23;5.32;;;11.00;99.90;;;;;;5017149;28;20108;-74
2023/11/15 07:19:48;;;;;;;31.63;5.97;;;11.00;99.90;;;;;;5020996;28;20564;-75
2023/11/15 07:22:17;;;;;;;32.45;5.28;;;11.00;99.90;;;;;;5013466;28;20014;-75
2023/11/15 07:24:43;;;;;;;28.42;6.55;;;11.00;99.90;;;;;;5021995;28;20125;-75
2023/11/15 07:27:09;;;;;;;28.15;6.13;;;11.00;99.90;;;;;;5016754;28;20113;-74
2023/11/15 07:29:35;;;;;;;32.95;5.80;;;11.00;99.90;;;;;;5021573;28;20022;-74
2023/11/15 07:32:04;;;;;;;34.65;5.70;;;11.00;99.90;;;;;;5013232;28;20034;-74
2023/11/15 07:34:32;;;;;;;29.40;5.75;;;11.00;99.90;;;;;;5020285;28;20787;-74
2023/11/15 07:36:58;;;;;;;25.60;5.40;;;11.00;99.90;;;;;;5024928;28;20128;-74
2023/11/15 07:39:27;;;;;;;29.50;5.35;;;11.00;99.90;;;;;;5021098;28;20021;-74
2023/11/15 07:41:54;;;;;;;27.35;5.28;;;11.00;99.90;;;;;;5006118;28;20044;-74
2023/11/15 07:44:20;;;;;;;33.65;5.75;;;11.00;99.90;;;;;;5027789;28;20037;-75
2023/11/15 07:46:49;;;;;;;30.20;4.85;;;11.10;99.90;;;;;;5018768;28;20018;-74
2023/11/15 07:49:18;;;;;;;34.47;6.78;;;11.10;99.90;;;;;;5011330;28;20099;-74
2023/11/15 07:51:44;;;;;;;28.60;8.18;;;11.20;99.90;;;;;;5021727;28;20041;-74
2023/11/15 07:54:10;;;;;;;24.85;6.07;;;11.20;99.90;;;;;;5027890;28;20022;-75
2023/11/15 07:56:36;;;;;;;32.92;5.97;;;11.20;99.90;;;;;;5027336;28;20048;-75
2023/11/15 07:59:01;;;;;;;28.58;5.65;;;11.20;99.90;;;;;;5012082;28;20394;-74
2023/11/15 08:01:27;;;;;;;31.52;5.35;;;11.20;99.90;;;;;;5027416;28;20069;-74
2023/11/15 08:03:53;;;;;;;31.58;6.13;;;11.20;99.90;;;;;;5027329;28;20101;-74
2023/11/15 08:06:19;;;;;;;30.77;5.22;;;11.20;99.90;;;;;;5016466;28;20122;-74
2023/11/15 08:08:44;;;;;;;26.13;5.25;;;11.30;99.90;;;;;;5024411;28;20121;-75
2023/11/15 08:11:11;;;;;;;32.03;5.07;;;11.20;99.90;;;;;;5007777;28;20039;-74
2023/11/15 08:13:38;;;;;;;22.52;4.95;;;11.30;99.90;;;;;;5006657;28;20028;-74
2023/11/15 08:16:05;;;;;;;30.38;5.30;;;11.20;99.90;;;;;;5027241;28;20113;-74
2023/11/15 08:18:31;;;;;;;24.83;4.68;;;11.20;99.90;;;;;;5020369;28;20463;-74
2023/11/15 08:20:57;;;;;;;35.58;5.85;;;11.30;99.90;;;;;;5023179;28;20451;-74
2023/11/15 08:23:25;;;;;;;32.92;5.50;;;11.30;99.90;;;;;;5020599;28;20087;-75
2023/11/15 08:25:52;;;;;;;33.58;5.13;;;11.30;99.90;;;;;;5009077;28;20865;-75
2023/11/15 08:28:18;;;;;;;28.45;5.38;;;11.30;99.90;;;;;;5014831;28;20113;-75
2023/11/15 08:30:45;;;;;;;26.75;5.07;;;11.30;99.90;;;;;;5025793;28;20136;-75
2023/11/15 08:33:12;;;;;;;36.22;5.32;;;11.30;99.90;;;;;;5026510;28;20048;-76
2023/11/15 08:35:38;;;;;;;27.58;5.82;;;11.30;99.90;;;;;;5023665;28;20035;-75
2023/11/15 08:38:04;;;;;;;26.23;5.10;;;11.30;99.90;;;;;;5021812;28;20421;-75
2023/11/15 08:40:31;;;;;;;27.73;4.82;;;11.30;99.90;;;;;;5016298;28;20018;-75
2023/11/15 08:42:57;;;;;;;25.13;5.93;;;11.30;99.90;;;;;;5010168;28;20052;-75
2023/11/15 08:45:23;;;;;;;15.18;2.88;;;11.20;99.90;;;;;;5014359;28;20026;-75
2023/11/15 08:47:49;;;;;;;31.50;5.32;;;11.20;99.90;;;;;;5015287;28;20025;-76
2023/11/15 08:50:15;;;;;;;30.52;4.97;;;11.20;99.90;;;;;;5012751;28;20080;-75
2023/11/15 08:52:41;;;;;;;12.30;3.28;;;11.20;99.90;;;;;;5013608;28;20403;-75
2023/11/15 08:55:11;;;;;;;25.60;3.70;;;11.20;99.90;;;;;;5020090;28;20057;-74
2023/11/15 08:57:37;;;;;;;9.05;1.55;;;11.20;99.90;;;;;;5021392;28;20033;-75
2023/11/15 09:00:07;;;;;;;23.65;3.70;;;11.10;99.90;;;;;;5027002;28;20127;-75
2023/11/15 09:02:32;;;;;;;21.23;3.20;;;11.10;99.90;;;;;;5006618;28;20029;-76
2023/11/15 09:05:01;;;;;;;22.15;4.22;;;11.20;99.90;;;;;;5008777;28;20399;-75
2023/11/15 09:07:28;;;;;;;25.33;4.40;;;11.20;99.90;;;;;;5019781;28;20045;-74
2023/11/15 09:09:54;;;;;;;18.90;3.65;;;11.10;99.90;;;;;;5022396;28;20117;-75
2023/11/15 09:12:27;;;;;;;23.13;3.50;;;11.10;99.90;;;;;;5013137;28;20025;-75
2023/11/15 09:14:53;;;;;;;20.10;3.60;;;11.10;99.90;;;;;;5026273;28;20025;-75
2023/11/15 09:17:20;;;;;;;19.05;3.17;;;11.20;99.90;;;;;;5017471;28;20044;-74
2023/11/15 09:19:49;;;;;;;18.80;3.58;;;11.20;99.90;;;;;;5008923;28;20100;-75
2023/11/15 09:22:15;;;;;;;19.67;3.75;;;11.20;99.90;;;;;;5006326;28;20037;-74
2023/11/15 09:24:41;;;;;;;18.05;4.15;;;11.30;99.90;;;;;;5015671;28;20060;-75
2023/11/15 09:27:07;;;;;;;24.48;3.97;;;11.40;99.90;;;;;;5013809;28;20748;-76
2023/11/15 09:29:34;;;;;;;22.50;4.35;;;11.50;99.90;;;;;;5026370;28;20084;-75
2023/11/15 09:32:00;;;;;;;27.63;5.18;;;11.50;99.90;;;;;;5015577;28;20025;-74
2023/11/15 09:34:26;;;;;;;23.35;4.18;;;11.60;99.90;;;;;;5020042;28;20376;-75
2023/11/15 09:36:52;;;;;;;20.67;4.53;;;11.60;99.90;;;;;;5012520;28;20037;-76
2023/11/15 09:39:17;;;;;;;20.05;5.25;;;11.60;99.90;;;;;;5025253;28;20360;-75
2023/11/15 09:41:53;;;;;;;20.13;4.25;;;11.60;99.90;;;;;;5022032;28;20033;-76
2023/11/15 09:44:23;;;;;;;18.60;4.70;;;11.60;99.90;;;;;;5007687;28;20041;-75
2023/11/15 09:46:57;;;;;;;19.75;4.05;;;11.60;99.90;;;;;;5024185;28;20033;-76
2023/11/15 09:49:25;;;;;;;25.73;4.30;;;11.60;99.90;;;;;;5022577;28;20487;-75
2023/11/15 09:51:52;;;;;;;20.05;4.07;;;11.70;99.90;;;;;;5014013;28;20057;-75
2023/11/15 09:54:20;;;;;;;19.98;4.45;;;11.60;99.90;;;;;;4991852;28;20025;-75
2023/11/15 09:56:48;;;;;;;20.25;3.92;;;11.60;99.90;;;;;;5022981;28;20018;-75
2023/11/15 09:59:15;;;;;;;20.38;4.22;;;11.50;99.90;;;;;;5009306;28;20021;-76
2023/11/15 10:01:45;;;;;;;19.23;3.58;;;11.50;99.90;;;;;;5010435;28;20037;-75
2023/11/15 10:04:28;;;;;;;23.10;3.50;;;11.40;99.90;;;;;;5026712;28;20029;-75
2023/11/15 10:06:58;;;;;;;18.98;4.07;;;11.40;99.90;;;;;;5025892;28;20260;-76
2023/11/15 10:09:39;;;;;;;21.98;5.00;;;11.40;99.90;;;;;;5020910;28;20540;-75
2023/11/15 10:12:08;;;;;;;23.02;3.65;;;11.50;99.90;;;;;;5027461;28;20025;-74
2023/11/15 10:14:36;;;;;;;20.02;4.43;;;11.50;99.90;;;;;;5026629;28;20494;-75
2023/11/15 10:17:03;;;;;;;20.88;3.85;;;11.50;99.90;;;;;;5025933;28;20045;-75
2023/11/15 10:19:29;;;;;;;25.15;3.17;;;11.50;99.90;;;;;;5025848;28;20436;-75
2023/11/15 10:22:00;;;;;;;16.98;3.28;;;11.60;99.90;;;;;;5017894;28;20025;-76
2023/11/15 10:24:28;;;;;;;;;;;11.60;99.90;;;;;;5028944;28;20113;-75
2023/11/15 10:26:55;;;;;;;14.48;3.53;;;11.70;99.90;;;;;;5006340;28;19909;-75
2023/11/15 10:29:21;;;;;;;15.05;2.85;;;11.70;99.90;;;;;;5007795;28;20418;-76
2023/11/15 10:31:53;;;;;;;23.38;3.08;;;11.80;99.90;;;;;;5016186;28;20026;-75
2023/11/15 10:34:32;;;;;;;13.68;3.25;;;11.90;99.90;;;;;;5014850;28;20830;-75
2023/11/15 10:37:05;;;;;;;16.67;3.13;;;12.00;99.90;;;;;;5010606;28;20034;-76
2023/11/15 10:39:32;;;;;;;13.40;3.35;;;12.10;99.90;;;;;;5005565;28;20155;-76
2023/11/15 10:42:00;;;;;;;15.20;2.97;;;12.10;99.90;;;;;;5010749;28;20036;-76
2023/11/15 10:44:28;;;;;;;18.60;3.70;;;12.10;99.90;;;;;;5027485;28;20125;-76
2023/11/15 10:46:58;;;;;;;14.30;2.92;;;12.10;99.90;;;;;;5028711;28;20028;-75
2023/11/15 10:49:25;;;;;;;24.05;4.30;;;12.10;99.90;;;;;;5037433;28;20116;-76
2023/11/15 10:51:54;;;;;;;17.30;3.10;;;12.20;99.90;;;;;;5010046;28;20028;-76
2023/11/15 10:54:21;;;;;;;24.48;3.78;;;12.30;99.90;;;;;;5030673;28;20096;-75
2023/11/15 10:56:49;;;;;;;17.92;3.45;;;12.30;99.90;;;;;;5029283;28;20030;-76
2023/11/15 10:59:18;;;;;;;15.38;3.03;;;12.30;99.90;;;;;;5004186;28;20025;-75
2023/11/15 11:01:45;;;;;;;15.30;3.15;;;12.30;99.90;;;;;;5027018;28;20020;-75
2023/11/15 11:04:12;;;;;;;18.08;2.92;;;12.40;99.90;;;;;;4998474;28;20184;-76
2023/11/15 11:07:02;;;;;;;14.85;2.75;;;12.40;99.90;;;;;;5014370;28;20024;-76
2023/11/15 11:09:50;;;;;;;14.73;2.30;;;12.50;99.90;;;;;;5007456;28;20052;-76
2023/11/15 11:12:22;;;;;;;15.82;3.42;;;12.50;99.90;;;;;;5021336;28;20823;-75
2023/11/15 11:15:11;;;;;;;14.35;3.03;;;12.40;99.90;;;;;;5007172;28;20109;-75
2023/11/15 11:17:38;;;;;;;9.15;2.20;;;12.40;99.90;;;;;;5024287;28;20064;-76
2023/11/15 11:20:24;;;;;;;15.00;3.13;;;12.30;99.90;;;;;;5010204;28;20036;-75
2023/11/15 11:23:07;;;;;;;15.13;3.00;;;12.30;99.90;;;;;;5020610;28;20022;-76
2023/11/15 11:25:39;;;;;;;17.20;3.30;;;12.20;99.90;;;;;;5025029;28;20055;-76
2023/11/15 11:28:07;;;;;;;14.85;3.00;;;12.20;99.90;;;;;;5005769;28;20063;-75
2023/11/15 11:30:33;;;;;;;16.67;3.00;;;12.20;99.90;;;;;;5006811;28;20104;-75
2023/11/15 11:33:16;;;;;;;14.82;2.83;;;12.20;99.90;;;;;;5025951;28;20156;-75
2023/11/15 11:35:43;;;;;;;18.30;3.05;;;12.20;99.90;;;;;;5023561;28;20025;-76
2023/11/15 11:38:14;;;;;;;12.30;2.28;;;12.40;99.90;;;;;;5016521;28;20029;-76
2023/11/15 11:40:40;;;;;;;13.68;2.60;;;12.50;99.90;;;;;;5019892;28;20045;-75
2023/11/15 11:43:23;;;;;;;14.30;2.28;;;12.70;99.90;;;;;;5020117;28;20121;-76
2023/11/15 11:45:53;;;;;;;11.30;2.35;;;12.80;99.90;;;;;;5006048;28;20030;-75
2023/11/15 11:48:26;;;;;;;14.23;2.67;;;12.90;99.90;;;;;;4990921;28;20037;-76
2023/11/15 11:51:00;;;;;;;15.18;3.08;;;13.00;99.90;;;;;;5021151;28;20040;-75
2023/11/15 11:53:26;;;;;;;11.70;2.15;;;13.10;99.90;;;;;;5018513;28;20025;-75
2023/11/15 11:55:57;;;;;;;12.70;2.58;;;13.20;99.90;;;;;;5005408;28;20030;-75
2023/11/15 11:58:26;;;;;;;14.15;2.88;;;13.20;99.90;;;;;;5021241;28;20030;-75
2023/11/15 12:00:58;;;;;;;13.70;2.70;;;13.10;99.90;;;;;;4995290;28;20108;-76
2023/11/15 12:03:24;;;;;;;9.80;2.30;;;13.10;99.90;;;;;;5019206;28;20101;-76
2023/11/15 12:05:55;;;;;;;14.70;2.65;;;13.00;99.90;;;;;;5023114;28;20121;-76
2023/11/15 12:08:22;;;;;;;17.38;4.03;;;12.80;99.90;;;;;;5025738;28;20533;-76
2023/11/15 12:10:48;;;;;;;14.15;2.63;;;12.70;99.90;;;;;;5003073;28;20021;-76
2023/11/15 12:13:13;;;;;;;13.45;2.67;;;12.60;99.90;;;;;;5003693;28;20503;-76
2023/11/15 12:15:39;;;;;;;12.43;2.60;;;12.40;99.90;;;;;;4996767;28;20049;-76
2023/11/15 12:18:06;;;;;;;13.77;2.58;;;12.30;99.90;;;;;;5023801;28;20041;-75
2023/11/15 12:20:38;;;;;;;15.63;2.85;;;12.20;99.90;;;;;;5020505;28;20018;-75
2023/11/15 12:23:09;;;;;;;8.88;2.08;;;12.20;99.90;;;;;;5018671;28;20025;-76
2023/11/15 12:25:54;;;;;;;19.67;2.60;;;12.10;99.90;;;;;;5008243;28;20662;-75
2023/11/15 12:28:25;;;;;;;11.88;2.47;;;12.00;99.90;;;;;;5006583;28;20044;-75
2023/11/15 12:30:53;;;;;;;11.35;2.15;;;11.90;99.90;;;;;;5026024;28;20029;-75
2023/11/15 12:33:20;;;;;;;14.10;2.83;;;11.80;99.90;;;;;;4997261;28;20120;-75
2023/11/15 12:35:47;;;;;;;15.15;2.90;;;11.70;99.90;;;;;;5020313;28;20037;-75
2023/11/15 12:38:14;;;;;;;12.15;2.20;;;11.70;99.90;;;;;;5016898;28;20030;-75